createdAt,value
2023-04-29T00:01:10.502Z,16.7
2023-04-29T00:02:26.910Z,15.6
2023-04-29T00:03:43.200Z,16.1
2023-04-29T00:04:59.505Z,15.8
2023-04-29T00:06:15.798Z,15.5
2023-04-29T00:07:32.094Z,15.6
2023-04-29T00:08:48.369Z,15.6
2023-04-29T00:10:04.680Z,15.7
2023-04-29T00:11:20.956Z,17.7
2023-04-29T00:12:37.264Z,16.6
2023-04-29T00:13:53.554Z,17.9
2023-04-29T00:15:09.848Z,17.8
2023-04-29T00:16:26.143Z,17.4
2023-04-29T00:17:42.430Z,18.3
2023-04-29T00:18:57.743Z,16.9
2023-04-29T00:21:30.341Z,16
2023-04-29T00:22:46.633Z,14.7
2023-04-29T00:24:02.911Z,14.6
2023-04-29T00:25:19.226Z,15.3
2023-04-29T00:26:35.510Z,15.5
2023-04-29T00:27:51.796Z,16
2023-04-29T00:29:08.105Z,15.8
2023-04-29T00:30:24.385Z,15.8
2023-04-29T00:31:40.687Z,16
2023-04-29T00:32:56.989Z,15.6
2023-04-29T00:34:13.275Z,15.2
2023-04-29T00:36:44.879Z,14.5
2023-04-29T00:38:01.171Z,14.5
2023-04-29T00:39:17.474Z,15
2023-04-29T00:40:33.750Z,15.3
2023-04-29T00:41:50.053Z,15
2023-04-29T00:43:06.352Z,14.6
2023-04-29T00:44:22.649Z,15.3
2023-04-29T00:45:38.930Z,15.9
2023-04-29T00:46:55.221Z,16.4
2023-04-29T00:49:27.826Z,17.6
2023-04-29T00:50:44.119Z,17.7
2023-04-29T00:52:00.532Z,17.4
2023-04-29T00:53:16.818Z,16.6
2023-04-29T00:54:33.120Z,16.6
2023-04-29T00:55:49.403Z,15.9
2023-04-29T00:57:05.711Z,16
2023-04-29T00:58:21.988Z,16.5
2023-04-29T00:59:38.285Z,16.5
2023-04-29T01:00:54.595Z,16.7
2023-04-29T01:02:10.877Z,17.1
2023-04-29T01:03:27.166Z,17.6
2023-04-29T01:04:42.497Z,17.4
2023-04-29T01:05:58.786Z,16.8
2023-04-29T01:07:15.081Z,16.6
2023-04-29T01:08:31.374Z,17.9
2023-04-29T01:09:47.670Z,18.1
2023-04-29T01:11:03.957Z,18.5
2023-04-29T01:12:20.256Z,18.7
2023-04-29T01:13:36.544Z,17.5
2023-04-29T01:14:52.835Z,17.5
2023-04-29T01:16:09.136Z,17
2023-04-29T01:17:25.418Z,16.2
2023-04-29T01:18:41.724Z,15.2
2023-04-29T01:19:58.007Z,15.3
2023-04-29T01:21:13.321Z,15.7
2023-04-29T01:22:29.624Z,15.6
2023-04-29T01:23:45.918Z,14.6
2023-04-29T01:25:02.202Z,14.3
2023-04-29T01:26:18.498Z,14.6
2023-04-29T01:27:34.786Z,15.1
2023-04-29T01:30:07.377Z,14.9
2023-04-29T01:31:23.687Z,16.1
2023-04-29T01:32:39.969Z,14.6
2023-04-29T01:33:56.270Z,15.6
2023-04-29T01:35:12.558Z,15.4
2023-04-29T01:36:28.856Z,15.6
2023-04-29T01:37:45.268Z,15.8
2023-04-29T01:39:01.568Z,15.5
2023-04-29T01:40:17.856Z,15.4
2023-04-29T01:41:34.145Z,15.9
2023-04-29T01:42:50.438Z,17.3
2023-04-29T01:44:06.746Z,16.6
2023-04-29T01:45:23.029Z,16.1
2023-04-29T01:46:39.320Z,15.8
2023-04-29T01:47:55.613Z,15.7
2023-04-29T01:49:11.911Z,15
2023-04-29T01:50:28.214Z,15.3
2023-04-29T01:51:44.512Z,14.9
2023-04-29T01:53:00.788Z,15.4
2023-04-29T01:54:16.109Z,15.6
2023-04-29T01:55:32.403Z,15.6
2023-04-29T01:56:48.704Z,15.2
2023-04-29T01:58:04.996Z,15.4
2023-04-29T02:00:37.586Z,15.5
2023-04-29T02:01:53.881Z,15.6
2023-04-29T02:03:10.163Z,15.8
2023-04-29T02:04:26.458Z,16
2023-04-29T02:05:42.761Z,15.6
2023-04-29T02:06:59.039Z,15.8
2023-04-29T02:08:15.345Z,15.5
2023-04-29T02:09:31.627Z,16.5
2023-04-29T02:10:46.923Z,15.1
2023-04-29T02:12:03.204Z,16.1
2023-04-29T02:13:19.514Z,16.1
2023-04-29T02:14:35.800Z,15.7
2023-04-29T02:15:52.092Z,15.9
2023-04-29T02:17:08.392Z,15.6
2023-04-29T02:18:24.685Z,15.7
2023-04-29T02:19:40.982Z,15
2023-04-29T02:20:57.265Z,15.7
2023-04-29T02:23:29.850Z,15.1
2023-04-29T02:24:46.151Z,15.7
2023-04-29T02:26:02.446Z,15.7
2023-04-29T02:27:18.856Z,14.3
2023-04-29T02:28:35.148Z,14.1
2023-04-29T02:29:51.439Z,14.8
2023-04-29T02:31:07.745Z,14.1
2023-04-29T02:32:24.033Z,14.2
2023-04-29T02:33:40.328Z,14.6
2023-04-29T02:34:56.620Z,15.9
2023-04-29T02:36:12.910Z,14.6
2023-04-29T02:37:29.201Z,14.1
2023-04-29T02:38:45.510Z,14.9
2023-04-29T02:40:01.807Z,14.7
2023-04-29T02:41:18.085Z,14.6
2023-04-29T02:42:34.399Z,15.8
2023-04-29T02:43:49.689Z,18.6
2023-04-29T02:45:05.995Z,15.3
2023-04-29T02:46:22.290Z,14.8
2023-04-29T02:47:38.584Z,15.3
2023-04-29T02:48:54.876Z,14.9
2023-04-29T02:50:11.164Z,15.1
2023-04-29T02:51:27.453Z,14.4
2023-04-29T02:52:43.763Z,16.5
2023-04-29T02:54:00.041Z,16.3
2023-04-29T02:55:16.346Z,16.1
2023-04-29T02:56:32.636Z,16.3
2023-04-29T02:57:48.921Z,15.8
2023-04-29T02:59:05.226Z,15.8
2023-04-29T03:00:20.541Z,16.2
2023-04-29T03:01:36.821Z,16.4
2023-04-29T03:02:53.113Z,16.7
2023-04-29T03:04:09.417Z,16.3
2023-04-29T03:05:25.700Z,16.8
2023-04-29T03:06:41.995Z,15.6
2023-04-29T03:09:14.596Z,16.6
2023-04-29T03:10:30.883Z,16.5
2023-04-29T03:11:47.175Z,16.4
2023-04-29T03:13:03.468Z,16.3
2023-04-29T03:14:19.714Z,16.7
2023-04-29T03:15:36.005Z,17.1
2023-04-29T03:16:51.286Z,16.5
2023-04-29T03:18:07.509Z,16.5
2023-04-29T03:19:23.759Z,16.3
2023-04-29T03:20:39.988Z,17.3
2023-04-29T03:21:56.228Z,17.1
2023-04-29T03:23:12.474Z,17.1
2023-04-29T03:24:28.721Z,17.6
2023-04-29T03:25:44.955Z,17.9
2023-04-29T03:27:01.198Z,17.7
2023-04-29T03:28:17.436Z,17.7
2023-04-29T03:29:33.686Z,18
2023-04-29T03:30:49.925Z,19.1
2023-04-29T03:32:06.159Z,18.3
2023-04-29T03:33:21.415Z,18.6
2023-04-29T03:34:37.650Z,18.8
2023-04-29T03:35:53.896Z,18.4
2023-04-29T03:37:10.135Z,18.8
2023-04-29T03:39:42.603Z,20.1
2023-04-29T03:40:58.854Z,20.8
2023-04-29T03:42:15.088Z,21.6
2023-04-29T03:43:31.323Z,20.1
2023-04-29T03:44:47.574Z,21.2
2023-04-29T03:47:20.061Z,21
2023-04-29T03:48:36.290Z,20.4
2023-04-29T03:49:51.551Z,21
2023-04-29T03:51:07.787Z,21.3
2023-04-29T03:52:24.036Z,21.4
2023-04-29T03:54:56.520Z,22.3
2023-04-29T03:56:11.779Z,22.1
2023-04-29T03:57:27.023Z,21.1
2023-04-29T03:58:43.260Z,22.3
2023-04-29T03:59:59.498Z,21.3
2023-04-29T04:01:15.739Z,21.5
2023-04-29T04:02:31.998Z,22.4
2023-04-29T04:03:48.221Z,21.6
2023-04-29T04:05:04.478Z,21
2023-04-29T04:06:20.701Z,20.8
2023-04-29T04:07:36.949Z,20.3
2023-04-29T04:08:53.188Z,20.5
2023-04-29T04:10:08.445Z,21.5
2023-04-29T04:11:23.708Z,20.2
2023-04-29T04:12:39.953Z,20.6
2023-04-29T04:13:56.196Z,20.7
2023-04-29T04:15:12.430Z,21.1
2023-04-29T04:16:28.666Z,21.4
2023-04-29T04:17:44.903Z,20.7
2023-04-29T04:19:01.138Z,21
2023-04-29T04:20:17.384Z,21.4
2023-04-29T04:21:33.631Z,20.9
2023-04-29T04:22:49.861Z,20.9
2023-04-29T04:24:06.108Z,21.8
2023-04-29T04:25:22.343Z,21.6
2023-04-29T04:26:38.581Z,22
2023-04-29T04:27:53.845Z,21.3
2023-04-29T04:29:10.093Z,21.8
2023-04-29T04:30:26.324Z,22.1
2023-04-29T04:31:42.566Z,21.4
2023-04-29T04:32:58.802Z,21.5
2023-04-29T04:34:15.049Z,21.9
2023-04-29T04:35:31.285Z,20.7
2023-04-29T04:36:47.515Z,20.2
2023-04-29T04:38:03.761Z,20.1
2023-04-29T04:39:20.013Z,20.8
2023-04-29T04:40:36.249Z,20.5
2023-04-29T04:41:52.485Z,21.4
2023-04-29T04:43:08.722Z,20.6
2023-04-29T04:44:23.974Z,20.4
2023-04-29T04:45:40.222Z,20.3
2023-04-29T04:46:56.471Z,20.5
2023-04-29T04:48:12.700Z,20.1
2023-04-29T04:49:28.932Z,20.2
2023-04-29T04:50:45.184Z,19.8
2023-04-29T04:52:01.428Z,19.9
2023-04-29T04:53:17.657Z,19.7
2023-04-29T04:54:33.891Z,19.9
2023-04-29T04:55:50.142Z,19.9
2023-04-29T04:57:06.387Z,19.3
2023-04-29T04:58:22.609Z,19.9
2023-04-29T04:59:38.863Z,20.9
2023-04-29T05:00:54.113Z,19.5
2023-04-29T05:02:10.368Z,20.1
2023-04-29T05:03:26.587Z,19.8
2023-04-29T05:04:42.836Z,19.6
2023-04-29T05:05:59.071Z,19.9
2023-04-29T05:07:15.309Z,18.9
2023-04-29T05:08:31.556Z,19.4
2023-04-29T05:09:47.792Z,19.1
2023-04-29T05:11:04.026Z,18.3
2023-04-29T05:12:20.266Z,18.4
2023-04-29T05:13:36.513Z,18.9
2023-04-29T05:14:52.756Z,18.4
2023-04-29T05:16:08.989Z,18.6
2023-04-29T05:17:24.254Z,17.8
2023-04-29T05:18:40.492Z,18.8
2023-04-29T05:19:55.747Z,18.9
2023-04-29T05:21:11.998Z,18.9
2023-04-29T05:22:28.243Z,19.5
2023-04-29T05:23:44.463Z,19
2023-04-29T05:26:16.957Z,18.1
2023-04-29T05:27:33.183Z,18.8
2023-04-29T05:28:49.426Z,18
2023-04-29T05:30:05.667Z,17.6
2023-04-29T05:31:21.909Z,17.4
2023-04-29T05:33:54.388Z,17
2023-04-29T05:35:10.627Z,17.2
2023-04-29T05:36:25.885Z,16.5
2023-04-29T05:37:42.125Z,16.7
2023-04-29T05:38:58.378Z,16.2
2023-04-29T05:40:14.615Z,16.6
2023-04-29T05:41:30.857Z,15.4
2023-04-29T05:42:47.082Z,15.3
2023-04-29T05:44:03.328Z,15.2
2023-04-29T05:45:19.576Z,14.3
2023-04-29T05:46:35.804Z,15
2023-04-29T05:47:52.040Z,14.7
2023-04-29T05:49:08.279Z,13.5
2023-04-29T05:50:24.536Z,13.2
2023-04-29T05:51:40.777Z,12.4
2023-04-29T05:52:56.030Z,11.9
2023-04-29T05:54:12.257Z,11.8
2023-04-29T05:55:28.514Z,11.7
2023-04-29T05:56:44.753Z,11
2023-04-29T05:58:00.992Z,11.3
2023-04-29T05:59:17.216Z,11.2
2023-04-29T06:00:33.465Z,12.4
2023-04-29T06:01:49.710Z,12
2023-04-29T06:03:05.952Z,12.8
2023-04-29T06:04:22.181Z,12.4
2023-04-29T06:05:38.427Z,12.4
2023-04-29T06:06:54.665Z,11.1
2023-04-29T06:08:10.909Z,11.2
2023-04-29T06:09:26.165Z,10.4
2023-04-29T06:10:42.394Z,9.9
2023-04-29T06:11:58.646Z,10.5
2023-04-29T06:13:14.884Z,10.2
2023-04-29T06:14:31.129Z,10.4
2023-04-29T06:15:47.355Z,10.4
2023-04-29T06:17:03.592Z,10.6
2023-04-29T06:19:36.072Z,10
2023-04-29T06:20:52.330Z,10.4
2023-04-29T06:22:08.550Z,11.6
2023-04-29T06:23:24.789Z,11.9
2023-04-29T06:24:41.030Z,11.6
2023-04-29T06:25:56.297Z,10.5
2023-04-29T06:27:12.529Z,11.6
2023-04-29T06:29:45.027Z,10.9
2023-04-29T06:31:01.259Z,11
2023-04-29T06:32:17.492Z,10.4
2023-04-29T06:33:33.741Z,11.3
2023-04-29T06:34:49.970Z,11.9
2023-04-29T06:36:06.213Z,12.1
2023-04-29T06:37:22.453Z,11.6
2023-04-29T06:38:38.701Z,11.1
2023-04-29T06:39:54.942Z,11
2023-04-29T06:41:11.176Z,10.1
2023-04-29T06:42:26.422Z,11
2023-04-29T06:43:42.666Z,11
2023-04-29T06:44:58.917Z,10.7
2023-04-29T06:46:15.142Z,10.7
2023-04-29T06:47:31.390Z,10.9
2023-04-29T06:50:03.870Z,10.5
2023-04-29T06:51:20.115Z,9.9
2023-04-29T06:52:36.349Z,9.9
2023-04-29T06:53:52.585Z,10
2023-04-29T06:55:08.822Z,9.8
2023-04-29T06:57:41.308Z,9.7
2023-04-29T06:58:56.560Z,9.2
2023-04-29T07:00:12.813Z,9.3
2023-04-29T07:01:29.040Z,9.3
2023-04-29T07:02:45.292Z,9.4
2023-04-29T07:04:01.528Z,9.7
2023-04-29T07:05:17.757Z,9.6
2023-04-29T07:06:33.998Z,9.6
2023-04-29T07:07:50.234Z,9
2023-04-29T07:09:06.473Z,9.7
2023-04-29T07:10:22.732Z,8.9
2023-04-29T07:11:38.968Z,9.5
2023-04-29T07:12:55.198Z,9
2023-04-29T07:14:11.448Z,9
2023-04-29T07:15:26.699Z,9.8
2023-04-29T07:16:42.935Z,9.7
2023-04-29T07:17:59.174Z,9.6
2023-04-29T07:19:15.427Z,9.5
2023-04-29T07:20:31.648Z,9.5
2023-04-29T07:21:47.897Z,8.9
2023-04-29T07:23:04.137Z,9.2
2023-04-29T07:24:20.383Z,9.3
2023-04-29T07:28:09.096Z,8.9
2023-04-29T07:29:25.332Z,8.8
2023-04-29T07:30:41.572Z,8.8
2023-04-29T07:31:56.842Z,8.5
2023-04-29T07:33:13.065Z,8.3
2023-04-29T07:34:29.315Z,8.5
2023-04-29T07:35:45.547Z,8.9
2023-04-29T07:37:01.788Z,8.4
2023-04-29T07:38:18.027Z,8.6
2023-04-29T07:39:34.283Z,9.4
2023-04-29T07:40:50.504Z,9.4
2023-04-29T07:42:06.742Z,10
2023-04-29T07:43:22.983Z,9.9
2023-04-29T07:44:39.240Z,10.1
2023-04-29T07:45:55.479Z,10.4
2023-04-29T07:48:27.961Z,8.8
2023-04-29T07:49:44.202Z,9.4
2023-04-29T07:50:59.460Z,10.2
2023-04-29T07:52:14.711Z,11.5
2023-04-29T07:53:30.952Z,9.8
2023-04-29T07:54:47.195Z,9.5
2023-04-29T07:56:03.426Z,10.2
2023-04-29T07:57:19.672Z,9.4
2023-04-29T07:58:35.901Z,10.1
2023-04-29T07:59:52.146Z,10.5
2023-04-29T08:01:08.389Z,10.3
2023-04-29T08:02:24.623Z,10.4
2023-04-29T08:03:40.877Z,10.5
2023-04-29T08:04:56.139Z,10.4
2023-04-29T08:06:11.381Z,10.8
2023-04-29T08:07:27.618Z,11
2023-04-29T08:08:43.875Z,10.3
2023-04-29T08:10:00.099Z,10.7
2023-04-29T08:11:16.351Z,11.2
2023-04-29T08:13:48.816Z,10.6
2023-04-29T08:15:05.056Z,10.8
2023-04-29T08:16:21.300Z,10.9
2023-04-29T08:17:37.540Z,10.3
2023-04-29T08:18:53.781Z,11.1
2023-04-29T08:20:10.030Z,10.7
2023-04-29T08:21:26.272Z,10.5
2023-04-29T08:22:41.523Z,10.9
2023-04-29T08:23:57.750Z,11
2023-04-29T08:25:14.001Z,10.8
2023-04-29T08:26:30.240Z,10.7
2023-04-29T08:27:46.486Z,10.9
2023-04-29T08:29:02.721Z,11
2023-04-29T08:30:18.951Z,11.3
2023-04-29T08:31:35.198Z,11.1
2023-04-29T08:32:51.428Z,11.4
2023-04-29T08:34:07.681Z,12.1
2023-04-29T08:35:23.908Z,12
2023-04-29T08:36:40.165Z,12.7
2023-04-29T08:37:56.397Z,13.1
2023-04-29T08:39:11.653Z,13.5
2023-04-29T08:40:27.891Z,13.8
2023-04-29T08:41:44.126Z,14.5
2023-04-29T08:43:00.377Z,14.7
2023-04-29T08:44:16.613Z,15.1
2023-04-29T08:45:32.861Z,15.6
2023-04-29T08:46:49.103Z,14
2023-04-29T08:48:05.322Z,14.2
2023-04-29T08:49:21.000Z,14
2023-04-29T08:50:37.802Z,14.2
2023-04-29T08:51:54.042Z,14.3
2023-04-29T08:53:10.297Z,14.8
2023-04-29T08:54:26.530Z,13.6
2023-04-29T08:55:41.785Z,12.9
2023-04-29T08:56:58.032Z,13.4
2023-04-29T08:58:14.259Z,12.6
2023-04-29T08:59:30.516Z,12.6
2023-04-29T09:02:02.993Z,12
2023-04-29T09:03:19.220Z,11.3
2023-04-29T09:04:35.458Z,11.7
2023-04-29T09:07:07.947Z,12.3
2023-04-29T09:08:24.177Z,11.8
2023-04-29T09:09:40.424Z,11.8
2023-04-29T09:10:56.663Z,11.5
2023-04-29T09:12:11.913Z,11.6
2023-04-29T09:13:28.167Z,11.2
2023-04-29T09:14:44.411Z,11
2023-04-29T09:16:00.645Z,11
2023-04-29T09:17:16.880Z,10.9
2023-04-29T09:18:33.128Z,11.1
2023-04-29T09:19:49.358Z,11
2023-04-29T09:21:05.597Z,10.8
2023-04-29T09:22:21.839Z,11.2
2023-04-29T09:23:38.080Z,10.5
2023-04-29T09:24:54.328Z,11
2023-04-29T09:26:10.561Z,10.3
2023-04-29T09:27:26.806Z,10.6
2023-04-29T09:28:42.066Z,10.5
2023-04-29T09:29:58.299Z,10.1
2023-04-29T09:31:14.529Z,10.3
2023-04-29T09:32:30.778Z,10
2023-04-29T09:33:47.014Z,9.4
2023-04-29T09:35:02.289Z,9.3
2023-04-29T09:37:34.750Z,9
2023-04-29T09:38:50.990Z,9
2023-04-29T09:40:07.246Z,8.9
2023-04-29T09:41:23.482Z,9.5
2023-04-29T09:42:39.729Z,9.2
2023-04-29T09:43:55.957Z,9.9
2023-04-29T09:45:12.192Z,9.7
2023-04-29T09:46:28.431Z,9.5
2023-04-29T09:47:44.669Z,10.2
2023-04-29T09:49:00.918Z,10.8
2023-04-29T09:50:17.156Z,10.8
2023-04-29T09:51:32.421Z,11.2
2023-04-29T09:52:48.655Z,10.9
2023-04-29T09:54:04.882Z,10.5
2023-04-29T09:55:21.124Z,10.3
2023-04-29T09:56:37.381Z,10.4
2023-04-29T09:57:53.617Z,10.5
2023-04-29T09:59:09.858Z,10
2023-04-29T10:00:26.095Z,8.8
2023-04-29T10:01:42.325Z,9.3
2023-04-29T10:02:58.580Z,9.5
2023-04-29T10:04:14.809Z,9.1
2023-04-29T10:05:31.039Z,9.1
2023-04-29T10:06:47.283Z,9.5
2023-04-29T10:08:02.553Z,9.8
2023-04-29T10:09:18.789Z,9.5
2023-04-29T10:10:35.028Z,9.6
2023-04-29T10:11:51.270Z,9.9
2023-04-29T10:13:07.509Z,9.5
2023-04-29T10:14:23.747Z,8.7
2023-04-29T10:15:39.982Z,8.2
2023-04-29T10:16:56.233Z,8.4
2023-04-29T10:18:12.468Z,7.8
2023-04-29T10:19:28.697Z,8.3
2023-04-29T10:20:44.939Z,8.5
2023-04-29T10:22:01.175Z,8.4
2023-04-29T10:23:17.419Z,8.6
2023-04-29T10:24:32.689Z,8.6
2023-04-29T10:25:48.928Z,10.2
2023-04-29T10:28:21.389Z,9.9
2023-04-29T10:29:37.631Z,10.5
2023-04-29T10:30:53.881Z,10
2023-04-29T10:32:10.112Z,10
2023-04-29T10:33:26.360Z,10.8
2023-04-29T10:34:42.591Z,10.5
2023-04-29T10:35:58.849Z,10
2023-04-29T10:38:31.310Z,9.8
2023-04-29T10:39:47.568Z,8.9
2023-04-29T10:41:02.810Z,8.9
2023-04-29T10:42:19.063Z,8.9
2023-04-29T10:43:35.290Z,9.1
2023-04-29T10:44:51.537Z,8.9
2023-04-29T10:46:07.777Z,8.6
2023-04-29T10:47:24.012Z,8.5
2023-04-29T10:48:40.256Z,8.7
2023-04-29T10:49:56.486Z,8.5
2023-04-29T10:51:12.725Z,8.9
2023-04-29T10:52:28.967Z,9.4
2023-04-29T10:53:45.215Z,9.4
2023-04-29T10:55:01.449Z,9.9
2023-04-29T10:56:17.687Z,9.9
2023-04-29T10:57:32.956Z,10.6
2023-04-29T10:58:49.200Z,11.1
2023-04-29T11:00:05.418Z,10.4
2023-04-29T11:01:21.659Z,10.9
2023-04-29T11:02:37.918Z,10.7
2023-04-29T11:03:54.148Z,10.8
2023-04-29T11:05:10.396Z,11
2023-04-29T11:06:26.629Z,11
2023-04-29T11:07:42.858Z,11.9
2023-04-29T11:08:59.106Z,11.5
2023-04-29T11:10:15.348Z,11.4
2023-04-29T11:11:31.598Z,11.2
2023-04-29T11:12:47.839Z,11.4
2023-04-29T11:14:03.086Z,11
2023-04-29T11:15:19.314Z,11.2
2023-04-29T11:16:35.557Z,11.1
2023-04-29T11:17:51.796Z,12.5
2023-04-29T11:19:08.039Z,13.1
2023-04-29T11:20:24.277Z,13.9
2023-04-29T11:21:40.523Z,14.5
2023-04-29T11:22:56.763Z,15
2023-04-29T11:24:13.000Z,15.7
2023-04-29T11:25:29.244Z,15.9
2023-04-29T11:26:45.477Z,16.9
2023-04-29T11:28:01.717Z,16.4
2023-04-29T11:29:17.965Z,17.3
2023-04-29T11:30:33.209Z,18.1
2023-04-29T11:31:49.460Z,18.4
2023-04-29T11:33:05.704Z,18
2023-04-29T11:34:21.939Z,18.1
2023-04-29T11:35:38.172Z,18.3
2023-04-29T11:36:54.409Z,19
2023-04-29T11:39:26.892Z,19.1
2023-04-29T11:40:43.147Z,18.8
2023-04-29T11:41:59.377Z,18.7
2023-04-29T11:43:15.610Z,18.8
2023-04-29T11:44:31.862Z,19.2
2023-04-29T11:45:48.108Z,18.2
2023-04-29T11:47:04.342Z,19.4
2023-04-29T11:48:19.603Z,19.1
2023-04-29T11:49:35.824Z,19.8
2023-04-29T11:50:52.068Z,20.1
2023-04-29T11:52:08.322Z,20.3
2023-04-29T11:53:24.557Z,20
2023-04-29T11:54:40.789Z,19.7
2023-04-29T11:55:57.025Z,19.3
2023-04-29T11:57:13.274Z,18.7
2023-04-29T11:58:29.510Z,19.3
2023-04-29T11:59:45.743Z,18.8
2023-04-29T12:01:01.995Z,18.3
2023-04-29T12:02:18.238Z,17.7
2023-04-29T12:03:34.469Z,19
2023-04-29T12:04:49.726Z,18.3
2023-04-29T12:06:05.972Z,18.6
2023-04-29T12:07:22.199Z,18.9
2023-04-29T12:08:38.445Z,18.6
2023-04-29T12:09:54.680Z,18.4
2023-04-29T12:11:10.935Z,18.2
2023-04-29T12:12:27.174Z,17.9
2023-04-29T12:13:43.402Z,18.3
2023-04-29T12:14:59.646Z,18.5
2023-04-29T12:16:15.895Z,18.2
2023-04-29T12:17:32.119Z,18.3
2023-04-29T12:18:48.367Z,18.6
2023-04-29T12:20:04.606Z,17.4
2023-04-29T12:21:19.868Z,18.2
2023-04-29T12:22:36.108Z,18.5
2023-04-29T12:23:52.346Z,18.4
2023-04-29T12:25:08.590Z,17.6
2023-04-29T12:26:24.829Z,18.3
2023-04-29T12:27:41.057Z,18
2023-04-29T12:28:57.301Z,18.4
2023-04-29T12:30:13.555Z,19
2023-04-29T12:31:29.785Z,18.9
2023-04-29T12:32:46.019Z,18.5
2023-04-29T12:34:02.259Z,18.4
2023-04-29T12:35:18.508Z,18
2023-04-29T12:36:34.752Z,18
2023-04-29T12:37:49.989Z,18.6
2023-04-29T12:39:06.246Z,18.7
2023-04-29T12:40:22.479Z,17.7
2023-04-29T12:41:38.710Z,18.4
2023-04-29T12:42:54.961Z,18.1
2023-04-29T12:44:11.198Z,17.6
2023-04-29T12:45:27.444Z,17.9
2023-04-29T12:47:59.926Z,17.9
2023-04-29T12:49:16.153Z,17.1
2023-04-29T12:50:32.400Z,16.6
2023-04-29T12:51:48.640Z,18
2023-04-29T12:53:04.879Z,17.9
2023-04-29T12:54:20.134Z,16.3
2023-04-29T12:55:36.365Z,17
2023-04-29T12:56:52.619Z,16.7
2023-04-29T12:58:08.860Z,17
2023-04-29T12:59:25.089Z,16.5
2023-04-29T13:00:41.331Z,16.9
2023-04-29T13:01:57.562Z,16.4
2023-04-29T13:03:13.808Z,16.5
2023-04-29T13:04:30.060Z,15.7
2023-04-29T13:05:46.294Z,16.5
2023-04-29T13:07:02.522Z,16.8
2023-04-29T13:08:18.769Z,16.4
2023-04-29T13:09:35.019Z,15.5
2023-04-29T13:10:50.269Z,14.5
2023-04-29T13:12:06.501Z,14.5
2023-04-29T13:13:22.745Z,15
2023-04-29T13:14:38.983Z,14.9
2023-04-29T13:15:55.217Z,14.1
2023-04-29T13:17:11.471Z,14.2
2023-04-29T13:18:27.708Z,14.2
2023-04-29T13:19:43.940Z,13.9
2023-04-29T13:21:00.192Z,13.1
2023-04-29T13:22:16.436Z,13.2
2023-04-29T13:23:32.660Z,13.8
2023-04-29T13:26:05.141Z,12.6
2023-04-29T13:27:20.406Z,12.7
2023-04-29T13:28:36.639Z,13.9
2023-04-29T13:29:52.879Z,13.4
2023-04-29T13:31:09.129Z,12.5
2023-04-29T13:32:25.368Z,12.6
2023-04-29T13:33:41.594Z,12.4
2023-04-29T13:34:57.830Z,12.7
2023-04-29T13:36:14.082Z,12.3
2023-04-29T13:37:30.326Z,13.1
2023-04-29T13:38:46.560Z,12.7
2023-04-29T13:40:02.804Z,12.9
2023-04-29T13:41:19.037Z,12.4
2023-04-29T13:42:35.284Z,12.3
2023-04-29T13:43:50.527Z,12.7
2023-04-29T13:45:06.781Z,12.4
2023-04-29T13:46:23.005Z,12.4
2023-04-29T13:48:55.489Z,12
2023-04-29T13:51:26.988Z,11.5
2023-04-29T13:52:42.263Z,11.8
2023-04-29T13:53:57.513Z,11.3
2023-04-29T13:55:13.757Z,11.4
2023-04-29T13:56:30.008Z,11.8
2023-04-29T13:57:46.235Z,11.3
2023-04-29T13:59:02.477Z,12
2023-04-29T14:00:18.732Z,11.5
2023-04-29T14:01:34.955Z,11.6
2023-04-29T14:02:51.205Z,11.8
2023-04-29T14:04:07.437Z,11.6
2023-04-29T14:05:23.677Z,12
2023-04-29T14:06:38.944Z,11.2
2023-04-29T14:07:54.209Z,11.9
2023-04-29T14:09:10.442Z,11.8
2023-04-29T14:11:42.920Z,12.6
2023-04-29T14:12:59.168Z,12.4
2023-04-29T14:14:15.396Z,11.9
2023-04-29T14:15:31.629Z,12.3
2023-04-29T14:16:47.872Z,12.5
2023-04-29T14:18:04.114Z,12.3
2023-04-29T14:19:20.350Z,13.2
2023-04-29T14:20:36.588Z,12.7
2023-04-29T14:21:52.842Z,12.9
2023-04-29T14:23:09.077Z,12.6
2023-04-29T14:24:24.331Z,12.6
2023-04-29T14:25:40.571Z,12.7
2023-04-29T14:26:56.810Z,13.1
2023-04-29T14:28:13.048Z,12.6
2023-04-29T14:29:29.300Z,12.6
2023-04-29T14:30:45.537Z,12.3
2023-04-29T14:32:01.776Z,12.6
2023-04-29T14:33:18.004Z,12.2
2023-04-29T14:34:34.262Z,12.4
2023-04-29T14:35:50.497Z,12.9
2023-04-29T14:37:06.739Z,12.6
2023-04-29T14:38:22.968Z,12.2
2023-04-29T14:39:39.211Z,11.6
2023-04-29T14:40:54.475Z,11.6
2023-04-29T14:42:10.711Z,12
2023-04-29T14:43:26.952Z,11.9
2023-04-29T14:44:43.180Z,11.9
2023-04-29T14:45:59.429Z,12.3
2023-04-29T14:47:15.669Z,11.5
2023-04-29T14:48:31.906Z,11.4
2023-04-29T14:49:48.142Z,11.5
2023-04-29T14:51:04.383Z,10.7
2023-04-29T14:52:20.633Z,10.1
2023-04-29T14:53:36.870Z,10
2023-04-29T14:54:53.110Z,10.1
2023-04-29T14:56:09.351Z,9.4
2023-04-29T14:57:24.607Z,8.5
2023-04-29T14:58:40.832Z,9.7
2023-04-29T14:59:57.075Z,9.6
2023-04-29T15:01:13.328Z,9.1
2023-04-29T15:02:29.568Z,8.8
2023-04-29T15:03:45.808Z,8.9
2023-04-29T15:05:02.036Z,8.8
2023-04-29T15:06:18.274Z,9.6
2023-04-29T15:07:34.529Z,9.3
2023-04-29T15:08:50.755Z,10.2
2023-04-29T15:10:07.008Z,9.9
2023-04-29T15:12:39.485Z,9.6
2023-04-29T15:13:54.736Z,9.8
2023-04-29T15:15:10.987Z,10.2
2023-04-29T15:16:27.225Z,10.6
2023-04-29T15:17:43.452Z,10.2
2023-04-29T15:18:59.703Z,10.4
2023-04-29T15:20:15.934Z,10.2
2023-04-29T15:21:32.167Z,10.1
2023-04-29T15:22:48.417Z,10.1
2023-04-29T15:24:04.658Z,9.7
2023-04-29T15:25:20.887Z,9.6
2023-04-29T15:26:37.141Z,10.1
2023-04-29T15:27:53.368Z,10.1
2023-04-29T15:29:09.607Z,9.9
2023-04-29T15:30:24.872Z,10.4
2023-04-29T15:31:41.122Z,10.3
2023-04-29T15:32:57.355Z,11.2
2023-04-29T15:34:13.600Z,10.9
2023-04-29T15:35:29.825Z,11.1
2023-04-29T15:36:46.063Z,10.2
2023-04-29T15:38:02.316Z,11.1
2023-04-29T15:39:18.545Z,10.8
2023-04-29T15:40:34.801Z,10.9
2023-04-29T15:41:51.033Z,11.5
2023-04-29T15:43:07.271Z,10.6
2023-04-29T15:44:23.500Z,10.8
2023-04-29T15:45:39.748Z,11
2023-04-29T15:46:55.000Z,11.2
2023-04-29T15:48:11.259Z,10.6
2023-04-29T15:49:27.494Z,11.1
2023-04-29T15:50:43.729Z,10.8
2023-04-29T15:51:59.961Z,10.7
2023-04-29T15:53:16.201Z,11.8
2023-04-29T15:54:32.444Z,11.7
2023-04-29T15:55:48.683Z,11.6
2023-04-29T15:58:21.162Z,12.1
2023-04-29T15:59:37.413Z,11.8
2023-04-29T16:00:53.639Z,11.5
2023-04-29T16:02:09.889Z,11.5
2023-04-29T16:03:25.133Z,11.9
2023-04-29T16:07:13.874Z,11
2023-04-29T16:08:29.119Z,11.3
2023-04-29T16:09:44.387Z,11.7
2023-04-29T16:11:00.621Z,11.3
2023-04-29T16:12:16.856Z,11.1
2023-04-29T16:13:33.094Z,10.5
2023-04-29T16:14:49.330Z,10.5
2023-04-29T16:16:05.583Z,11.1
2023-04-29T16:17:21.814Z,10.8
2023-04-29T16:18:38.064Z,10.6
2023-04-29T16:19:54.304Z,11.6
2023-04-29T16:21:10.534Z,11.2
2023-04-29T16:22:25.793Z,10.2
2023-04-29T16:23:41.046Z,10.3
2023-04-29T16:24:57.289Z,10.8
2023-04-29T16:26:13.532Z,9.9
2023-04-29T16:28:46.012Z,10.7
2023-04-29T16:30:02.261Z,10.1
2023-04-29T16:31:18.487Z,10.5
2023-04-29T16:32:34.743Z,10.5
2023-04-29T16:33:50.978Z,9.8
2023-04-29T16:35:07.208Z,10.1
2023-04-29T16:36:23.448Z,10.2
2023-04-29T16:37:39.702Z,10.3
2023-04-29T16:38:55.935Z,10.4
2023-04-29T16:40:11.193Z,10.3
2023-04-29T16:41:27.435Z,10.3
2023-04-29T16:43:59.901Z,10.2
2023-04-29T16:45:15.174Z,10.4
2023-04-29T16:46:30.433Z,10.1
2023-04-29T16:47:46.676Z,10.6
2023-04-29T16:49:02.904Z,10.2
2023-04-29T16:50:19.143Z,10
2023-04-29T16:51:35.379Z,10.5
2023-04-29T16:52:51.634Z,10.7
2023-04-29T16:54:07.877Z,10.1
2023-04-29T16:55:24.111Z,10.9
2023-04-29T16:56:40.353Z,10.7
2023-04-29T16:57:56.585Z,10.5
2023-04-29T16:59:11.859Z,11.6
2023-04-29T17:00:27.099Z,10.8
2023-04-29T17:01:43.000Z,10.2
2023-04-29T17:02:59.594Z,10.1
2023-04-29T17:04:15.832Z,10.2
2023-04-29T17:05:32.060Z,10.2
2023-04-29T17:06:48.297Z,10.2
2023-04-29T17:08:04.550Z,10
2023-04-29T17:09:20.783Z,10.3
2023-04-29T17:10:37.031Z,10.1
2023-04-29T17:11:53.261Z,10.4
2023-04-29T17:13:09.504Z,10.6
2023-04-29T17:14:25.740Z,12.9
2023-04-29T17:15:41.975Z,12.3
2023-04-29T17:16:57.240Z,11.3
2023-04-29T17:18:13.489Z,10.4
2023-04-29T17:19:29.729Z,10.5
2023-04-29T17:20:45.962Z,10.3
2023-04-29T17:22:02.209Z,10.4
2023-04-29T17:23:18.436Z,10.4
2023-04-29T17:24:34.686Z,10.5
2023-04-29T17:25:50.919Z,10.6
2023-04-29T17:27:07.160Z,10.7
2023-04-29T17:28:23.408Z,10.3
2023-04-29T17:29:39.629Z,10.6
2023-04-29T17:30:55.874Z,10.2
2023-04-29T17:32:12.124Z,10.6
2023-04-29T17:33:27.382Z,10.3
2023-04-29T17:34:43.608Z,10.9
2023-04-29T17:35:59.849Z,10.3
2023-04-29T17:37:16.084Z,10.7
2023-04-29T17:38:32.343Z,11.4
2023-04-29T17:39:48.567Z,11.1
2023-04-29T17:41:04.810Z,10.3
2023-04-29T17:42:21.054Z,10.8
2023-04-29T17:43:37.291Z,10.4
2023-04-29T17:44:53.534Z,10.8
2023-04-29T17:46:09.779Z,10.5
2023-04-29T17:47:26.023Z,10.6
2023-04-29T17:48:42.249Z,10.8
2023-04-29T17:49:57.500Z,10
2023-04-29T17:52:29.993Z,11.5
2023-04-29T17:53:46.218Z,10.8